sensor_id;sensor_type;location;lat;lon;timestamp;P1;durP1;ratioP1;P2;durP2;ratioP2
64387;SDS011;50709;52.648;4.764;2023-01-01T00:00:06;29.00;;;15.95;;
64387;SDS011;50709;52.648;4.764;2023-01-01T00:02:32;20.10;;;12.45;;
64387;SDS011;50709;52.648;4.764;2023-01-01T00:04:58;42.28;;;22.88;;
64387;SDS011;50709;52.648;4.764;2023-01-01T00:07:23;44.13;;;23.25;;
64387;SDS011;50709;52.648;4.764;2023-01-01T00:09:49;23.92;;;12.18;;
64387;SDS011;50709;52.648;4.764;2023-01-01T00:12:33;74.28;;;34.63;;
64387;SDS011;50709;52.648;4.764;2023-01-01T00:14:58;68.07;;;30.00;;
64387;SDS011;50709;52.648;4.764;2023-01-01T00:17:24;42.45;;;19.40;;
64387;SDS011;50709;52.648;4.764;2023-01-01T00:19:49;28.92;;;13.88;;
64387;SDS011;50709;52.648;4.764;2023-01-01T00:22:15;26.73;;;15.43;;
64387;SDS011;50709;52.648;4.764;2023-01-01T00:24:41;30.00;;;14.02;;
64387;SDS011;50709;52.648;4.764;2023-01-01T00:27:06;22.42;;;11.73;;
64387;SDS011;50709;52.648;4.764;2023-01-01T00:29:32;19.77;;;9.85;;
64387;SDS011;50709;52.648;4.764;2023-01-01T00:31:57;25.45;;;13.63;;
64387;SDS011;50709;52.648;4.764;2023-01-01T00:34:23;39.70;;;25.77;;
64387;SDS011;50709;52.648;4.764;2023-01-01T00:36:48;38.25;;;22.67;;
64387;SDS011;50709;52.648;4.764;2023-01-01T00:39:13;21.95;;;10.05;;
64387;SDS011;50709;52.648;4.764;2023-01-01T00:41:39;23.40;;;11.48;;
64387;SDS011;50709;52.648;4.764;2023-01-01T00:44:04;25.48;;;12.07;;
64387;SDS011;50709;52.648;4.764;2023-01-01T00:46:30;26.27;;;13.82;;
64387;SDS011;50709;52.648;4.764;2023-01-01T00:48:55;24.35;;;10.00;;
64387;SDS011;50709;52.648;4.764;2023-01-01T00:51:20;36.03;;;18.88;;
64387;SDS011;50709;52.648;4.764;2023-01-01T00:53:46;26.38;;;12.38;;
64387;SDS011;50709;52.648;4.764;2023-01-01T00:56:11;57.33;;;29.83;;
64387;SDS011;50709;52.648;4.764;2023-01-01T00:58:37;20.77;;;9.88;;
64387;SDS011;50709;52.648;4.764;2023-01-01T01:01:02;26.52;;;10.40;;
64387;SDS011;50709;52.648;4.764;2023-01-01T01:03:28;23.77;;;9.52;;
64387;SDS011;50709;52.648;4.764;2023-01-01T01:05:58;20.00;;;8.93;;
64387;SDS011;50709;52.648;4.764;2023-01-01T01:08:27;19.13;;;8.38;;
64387;SDS011;50709;52.648;4.764;2023-01-01T01:10:53;21.42;;;9.85;;
64387;SDS011;50709;52.648;4.764;2023-01-01T01:13:19;16.70;;;6.80;;
64387;SDS011;50709;52.648;4.764;2023-01-01T01:15:44;16.40;;;7.53;;
64387;SDS011;50709;52.648;4.764;2023-01-01T01:18:10;18.85;;;8.75;;
64387;SDS011;50709;52.648;4.764;2023-01-01T01:20:35;17.30;;;8.15;;
64387;SDS011;50709;52.648;4.764;2023-01-01T01:23:01;20.83;;;9.02;;
64387;SDS011;50709;52.648;4.764;2023-01-01T01:25:26;18.35;;;6.53;;
64387;SDS011;50709;52.648;4.764;2023-01-01T01:27:52;16.98;;;7.50;;
64387;SDS011;50709;52.648;4.764;2023-01-01T01:30:17;20.05;;;8.93;;
64387;SDS011;50709;52.648;4.764;2023-01-01T01:32:43;21.52;;;6.85;;
64387;SDS011;50709;52.648;4.764;2023-01-01T01:35:08;17.63;;;8.07;;
64387;SDS011;50709;52.648;4.764;2023-01-01T01:37:33;15.88;;;6.05;;
64387;SDS011;50709;52.648;4.764;2023-01-01T01:39:59;16.63;;;6.72;;
64387;SDS011;50709;52.648;4.764;2023-01-01T01:42:24;20.88;;;7.25;;
64387;SDS011;50709;52.648;4.764;2023-01-01T01:52:30;15.82;;;5.88;;
64387;SDS011;50709;52.648;4.764;2023-01-01T01:54:58;11.57;;;6.63;;
64387;SDS011;50709;52.648;4.764;2023-01-01T01:57:26;11.65;;;6.07;;
64387;SDS011;50709;52.648;4.764;2023-01-01T01:59:53;19.52;;;6.82;;
64387;SDS011;50709;52.648;4.764;2023-01-01T02:02:44;16.70;;;6.00;;
64387;SDS011;50709;52.648;4.764;2023-01-01T02:05:15;20.38;;;6.78;;
64387;SDS011;50709;52.648;4.764;2023-01-01T02:07:44;15.82;;;6.32;;
64387;SDS011;50709;52.648;4.764;2023-01-01T02:10:09;12.57;;;5.38;;
64387;SDS011;50709;52.648;4.764;2023-01-01T02:12:35;11.90;;;5.32;;
64387;SDS011;50709;52.648;4.764;2023-01-01T02:15:00;13.13;;;4.25;;
64387;SDS011;50709;52.648;4.764;2023-01-01T02:17:51;15.43;;;6.38;;
64387;SDS011;50709;52.648;4.764;2023-01-01T02:20:21;16.05;;;5.93;;
64387;SDS011;50709;52.648;4.764;2023-01-01T02:31:15;13.57;;;6.07;;
64387;SDS011;50709;52.648;4.764;2023-01-01T02:33:46;12.68;;;7.30;;
64387;SDS011;50709;52.648;4.764;2023-01-01T02:36:14;14.32;;;5.97;;
64387;SDS011;50709;52.648;4.764;2023-01-01T02:38:43;13.27;;;6.63;;
64387;SDS011;50709;52.648;4.764;2023-01-01T02:43:45;16.52;;;6.28;;
64387;SDS011;50709;52.648;4.764;2023-01-01T02:46:11;19.92;;;6.57;;
64387;SDS011;50709;52.648;4.764;2023-01-01T02:48:40;17.90;;;6.15;;
64387;SDS011;50709;52.648;4.764;2023-01-01T02:57:08;14.15;;;6.20;;
64387;SDS011;50709;52.648;4.764;2023-01-01T03:02:52;17.85;;;5.53;;
64387;SDS011;50709;52.648;4.764;2023-01-01T03:08:50;15.40;;;5.63;;
64387;SDS011;50709;52.648;4.764;2023-01-01T03:11:18;18.67;;;6.15;;
64387;SDS011;50709;52.648;4.764;2023-01-01T03:14:04;13.98;;;6.40;;
64387;SDS011;50709;52.648;4.764;2023-01-01T03:16:59;13.98;;;5.03;;
64387;SDS011;50709;52.648;4.764;2023-01-01T03:19:51;15.52;;;5.20;;
64387;SDS011;50709;52.648;4.764;2023-01-01T03:22:20;16.70;;;6.32;;
64387;SDS011;50709;52.648;4.764;2023-01-01T03:24:55;17.38;;;5.93;;
64387;SDS011;50709;52.648;4.764;2023-01-01T03:27:36;17.90;;;6.53;;
64387;SDS011;50709;52.648;4.764;2023-01-01T03:30:08;14.45;;;5.05;;
64387;SDS011;50709;52.648;4.764;2023-01-01T03:32:48;19.65;;;4.78;;
64387;SDS011;50709;52.648;4.764;2023-01-01T03:35:25;11.85;;;4.43;;
64387;SDS011;50709;52.648;4.764;2023-01-01T03:37:57;17.00;;;5.30;;
64387;SDS011;50709;52.648;4.764;2023-01-01T03:40:26;14.98;;;5.53;;
64387;SDS011;50709;52.648;4.764;2023-01-01T03:42:55;20.20;;;5.35;;
64387;SDS011;50709;52.648;4.764;2023-01-01T03:45:35;18.92;;;5.75;;
64387;SDS011;50709;52.648;4.764;2023-01-01T03:48:04;16.17;;;4.90;;
64387;SDS011;50709;52.648;4.764;2023-01-01T03:50:39;18.23;;;4.85;;
64387;SDS011;50709;52.648;4.764;2023-01-01T04:01:16;15.68;;;4.93;;
64387;SDS011;50709;52.648;4.764;2023-01-01T04:03:47;23.33;;;5.00;;
64387;SDS011;50709;52.648;4.764;2023-01-01T04:06:14;13.05;;;4.60;;
64387;SDS011;50709;52.648;4.764;2023-01-01T04:08:40;15.80;;;5.28;;
64387;SDS011;50709;52.648;4.764;2023-01-01T04:11:27;17.17;;;4.55;;
64387;SDS011;50709;52.648;4.764;2023-01-01T04:14:11;13.52;;;4.50;;
64387;SDS011;50709;52.648;4.764;2023-01-01T04:16:36;17.50;;;4.93;;
64387;SDS011;50709;52.648;4.764;2023-01-01T04:19:02;12.85;;;4.55;;
64387;SDS011;50709;52.648;4.764;2023-01-01T04:21:31;14.57;;;4.50;;
64387;SDS011;50709;52.648;4.764;2023-01-01T04:23:56;19.15;;;4.35;;
64387;SDS011;50709;52.648;4.764;2023-01-01T04:26:22;18.48;;;4.78;;
64387;SDS011;50709;52.648;4.764;2023-01-01T04:28:47;16.88;;;5.20;;
64387;SDS011;50709;52.648;4.764;2023-01-01T04:31:13;14.30;;;4.05;;
64387;SDS011;50709;52.648;4.764;2023-01-01T04:33:38;14.77;;;3.67;;
64387;SDS011;50709;52.648;4.764;2023-01-01T04:36:04;8.90;;;3.05;;
64387;SDS011;50709;52.648;4.764;2023-01-01T04:38:35;19.33;;;5.30;;
64387;SDS011;50709;52.648;4.764;2023-01-01T04:41:02;17.98;;;4.40;;
64387;SDS011;50709;52.648;4.764;2023-01-01T04:43:28;14.63;;;4.35;;
64387;SDS011;50709;52.648;4.764;2023-01-01T04:45:58;14.73;;;3.88;;
64387;SDS011;50709;52.648;4.764;2023-01-01T04:48:25;19.95;;;4.60;;
64387;SDS011;50709;52.648;4.764;2023-01-01T04:50:55;11.32;;;3.88;;
64387;SDS011;50709;52.648;4.764;2023-01-01T04:53:27;13.88;;;4.13;;
64387;SDS011;50709;52.648;4.764;2023-01-01T04:55:53;15.50;;;4.13;;
64387;SDS011;50709;52.648;4.764;2023-01-01T04:58:18;14.30;;;3.90;;
64387;SDS011;50709;52.648;4.764;2023-01-01T05:00:47;13.60;;;4.00;;
64387;SDS011;50709;52.648;4.764;2023-01-01T05:03:14;16.45;;;4.63;;
64387;SDS011;50709;52.648;4.764;2023-01-01T05:05:39;19.65;;;4.38;;
64387;SDS011;50709;52.648;4.764;2023-01-01T05:08:04;14.57;;;4.28;;
64387;SDS011;50709;52.648;4.764;2023-01-01T05:10:30;19.33;;;4.38;;
64387;SDS011;50709;52.648;4.764;2023-01-01T05:12:55;14.80;;;3.90;;
64387;SDS011;50709;52.648;4.764;2023-01-01T05:15:21;12.45;;;3.45;;
64387;SDS011;50709;52.648;4.764;2023-01-01T05:17:46;12.15;;;3.78;;
64387;SDS011;50709;52.648;4.764;2023-01-01T05:20:12;10.60;;;3.20;;
64387;SDS011;50709;52.648;4.764;2023-01-01T05:22:37;15.35;;;3.58;;
64387;SDS011;50709;52.648;4.764;2023-01-01T05:25:02;15.90;;;3.97;;
64387;SDS011;50709;52.648;4.764;2023-01-01T05:27:28;14.80;;;4.70;;
64387;SDS011;50709;52.648;4.764;2023-01-01T05:29:54;16.98;;;4.20;;
64387;SDS011;50709;52.648;4.764;2023-01-01T05:32:19;17.10;;;4.13;;
64387;SDS011;50709;52.648;4.764;2023-01-01T05:34:44;15.20;;;3.28;;
64387;SDS011;50709;52.648;4.764;2023-01-01T05:37:10;13.30;;;3.15;;
64387;SDS011;50709;52.648;4.764;2023-01-01T05:39:35;18.88;;;4.00;;
64387;SDS011;50709;52.648;4.764;2023-01-01T05:42:01;15.95;;;3.50;;
64387;SDS011;50709;52.648;4.764;2023-01-01T05:44:26;12.13;;;3.63;;
64387;SDS011;50709;52.648;4.764;2023-01-01T05:46:52;21.83;;;3.67;;
64387;SDS011;50709;52.648;4.764;2023-01-01T05:49:17;10.95;;;3.85;;
64387;SDS011;50709;52.648;4.764;2023-01-01T05:51:43;16.58;;;3.58;;
64387;SDS011;50709;52.648;4.764;2023-01-01T05:54:08;16.63;;;3.90;;
64387;SDS011;50709;52.648;4.764;2023-01-01T05:56:34;17.83;;;3.90;;
64387;SDS011;50709;52.648;4.764;2023-01-01T05:59:00;14.93;;;4.32;;
64387;SDS011;50709;52.648;4.764;2023-01-01T06:01:26;19.83;;;4.90;;
64387;SDS011;50709;52.648;4.764;2023-01-01T06:03:53;21.00;;;4.10;;
64387;SDS011;50709;52.648;4.764;2023-01-01T06:06:21;25.88;;;5.35;;
64387;SDS011;50709;52.648;4.764;2023-01-01T06:08:49;24.35;;;4.05;;
64387;SDS011;50709;52.648;4.764;2023-01-01T06:11:16;18.38;;;3.80;;
64387;SDS011;50709;52.648;4.764;2023-01-01T06:13:42;18.08;;;4.00;;
64387;SDS011;50709;52.648;4.764;2023-01-01T06:16:08;15.52;;;4.22;;
64387;SDS011;50709;52.648;4.764;2023-01-01T06:18:34;20.75;;;4.50;;
64387;SDS011;50709;52.648;4.764;2023-01-01T06:21:07;19.33;;;3.90;;
64387;SDS011;50709;52.648;4.764;2023-01-01T06:23:34;18.58;;;4.53;;
64387;SDS011;50709;52.648;4.764;2023-01-01T06:26:09;14.25;;;3.30;;
64387;SDS011;50709;52.648;4.764;2023-01-01T06:28:36;17.48;;;4.68;;
64387;SDS011;50709;52.648;4.764;2023-01-01T06:31:03;17.77;;;3.80;;
64387;SDS011;50709;52.648;4.764;2023-01-01T06:33:30;12.88;;;3.30;;
64387;SDS011;50709;52.648;4.764;2023-01-01T06:35:56;13.02;;;4.10;;
64387;SDS011;50709;52.648;4.764;2023-01-01T06:38:21;14.85;;;3.88;;
64387;SDS011;50709;52.648;4.764;2023-01-01T06:40:56;25.75;;;4.25;;
64387;SDS011;50709;52.648;4.764;2023-01-01T06:43:23;15.70;;;3.78;;
64387;SDS011;50709;52.648;4.764;2023-01-01T06:45:57;16.83;;;4.03;;
64387;SDS011;50709;52.648;4.764;2023-01-01T06:48:36;17.70;;;3.63;;
64387;SDS011;50709;52.648;4.764;2023-01-01T06:51:05;18.25;;;4.07;;
64387;SDS011;50709;52.648;4.764;2023-01-01T06:53:33;12.77;;;3.55;;
64387;SDS011;50709;52.648;4.764;2023-01-01T06:55:58;13.05;;;3.33;;
64387;SDS011;50709;52.648;4.764;2023-01-01T06:58:24;18.83;;;3.72;;
64387;SDS011;50709;52.648;4.764;2023-01-01T07:00:49;18.58;;;4.25;;
64387;SDS011;50709;52.648;4.764;2023-01-01T07:03:15;15.48;;;3.35;;
64387;SDS011;50709;52.648;4.764;2023-01-01T07:05:40;24.45;;;6.05;;
64387;SDS011;50709;52.648;4.764;2023-01-01T07:08:06;11.20;;;2.95;;
64387;SDS011;50709;52.648;4.764;2023-01-01T07:10:31;14.65;;;3.40;;
64387;SDS011;50709;52.648;4.764;2023-01-01T07:12:56;18.15;;;3.88;;
64387;SDS011;50709;52.648;4.764;2023-01-01T07:15:22;15.38;;;3.80;;
64387;SDS011;50709;52.648;4.764;2023-01-01T07:17:47;21.58;;;4.95;;
64387;SDS011;50709;52.648;4.764;2023-01-01T07:20:12;11.75;;;3.10;;
64387;SDS011;50709;52.648;4.764;2023-01-01T07:22:38;16.13;;;3.80;;
64387;SDS011;50709;52.648;4.764;2023-01-01T07:25:05;12.73;;;3.08;;
64387;SDS011;50709;52.648;4.764;2023-01-01T07:27:31;12.52;;;3.17;;
64387;SDS011;50709;52.648;4.764;2023-01-01T07:29:56;16.00;;;3.65;;
64387;SDS011;50709;52.648;4.764;2023-01-01T07:32:22;11.68;;;2.50;;
64387;SDS011;50709;52.648;4.764;2023-01-01T07:34:47;16.33;;;4.28;;
64387;SDS011;50709;52.648;4.764;2023-01-01T07:37:13;20.23;;;4.20;;
64387;SDS011;50709;52.648;4.764;2023-01-01T07:39:38;13.23;;;2.95;;
64387;SDS011;50709;52.648;4.764;2023-01-01T07:42:03;17.40;;;3.90;;
64387;SDS011;50709;52.648;4.764;2023-01-01T07:44:29;15.80;;;3.90;;
64387;SDS011;50709;52.648;4.764;2023-01-01T07:47:04;18.75;;;3.95;;
64387;SDS011;50709;52.648;4.764;2023-01-01T07:49:34;17.58;;;3.25;;
64387;SDS011;50709;52.648;4.764;2023-01-01T07:52:00;8.52;;;2.42;;
64387;SDS011;50709;52.648;4.764;2023-01-01T07:54:25;23.02;;;3.83;;
64387;SDS011;50709;52.648;4.764;2023-01-01T07:56:50;17.77;;;3.53;;
64387;SDS011;50709;52.648;4.764;2023-01-01T07:59:16;20.10;;;3.80;;
64387;SDS011;50709;52.648;4.764;2023-01-01T08:01:41;16.13;;;3.30;;
64387;SDS011;50709;52.648;4.764;2023-01-01T08:04:07;22.20;;;4.10;;
64387;SDS011;50709;52.648;4.764;2023-01-01T08:06:32;17.30;;;3.88;;
64387;SDS011;50709;52.648;4.764;2023-01-01T08:08:58;13.80;;;3.72;;
64387;SDS011;50709;52.648;4.764;2023-01-01T08:11:23;20.17;;;4.32;;
64387;SDS011;50709;52.648;4.764;2023-01-01T08:13:49;15.48;;;3.30;;
64387;SDS011;50709;52.648;4.764;2023-01-01T08:16:14;14.88;;;3.70;;
64387;SDS011;50709;52.648;4.764;2023-01-01T08:18:40;17.70;;;4.43;;
64387;SDS011;50709;52.648;4.764;2023-01-01T08:21:05;14.85;;;3.72;;
64387;SDS011;50709;52.648;4.764;2023-01-01T08:23:31;13.85;;;3.03;;
64387;SDS011;50709;52.648;4.764;2023-01-01T08:26:00;23.73;;;4.72;;
64387;SDS011;50709;52.648;4.764;2023-01-01T08:28:26;16.10;;;3.42;;
64387;SDS011;50709;52.648;4.764;2023-01-01T08:30:52;19.15;;;3.65;;
64387;SDS011;50709;52.648;4.764;2023-01-01T08:33:18;21.00;;;3.92;;
64387;SDS011;50709;52.648;4.764;2023-01-01T08:35:43;13.57;;;3.47;;
64387;SDS011;50709;52.648;4.764;2023-01-01T08:38:11;18.25;;;3.65;;
64387;SDS011;50709;52.648;4.764;2023-01-01T08:40:37;12.50;;;3.35;;
64387;SDS011;50709;52.648;4.764;2023-01-01T08:43:03;22.17;;;3.83;;
64387;SDS011;50709;52.648;4.764;2023-01-01T08:45:28;11.57;;;3.22;;
64387;SDS011;50709;52.648;4.764;2023-01-01T08:47:54;16.95;;;4.43;;
64387;SDS011;50709;52.648;4.764;2023-01-01T08:50:19;14.10;;;3.50;;
64387;SDS011;50709;52.648;4.764;2023-01-01T08:52:45;10.25;;;2.22;;
64387;SDS011;50709;52.648;4.764;2023-01-01T08:55:10;16.05;;;3.78;;
64387;SDS011;50709;52.648;4.764;2023-01-01T08:57:35;17.98;;;4.32;;
64387;SDS011;50709;52.648;4.764;2023-01-01T09:00:01;14.18;;;3.13;;
64387;SDS011;50709;52.648;4.764;2023-01-01T09:02:26;12.48;;;3.33;;
64387;SDS011;50709;52.648;4.764;2023-01-01T09:04:51;17.98;;;3.03;;
64387;SDS011;50709;52.648;4.764;2023-01-01T09:07:17;16.95;;;4.80;;
64387;SDS011;50709;52.648;4.764;2023-01-01T09:09:42;12.30;;;3.30;;
64387;SDS011;50709;52.648;4.764;2023-01-01T09:12:09;13.35;;;3.20;;
64387;SDS011;50709;52.648;4.764;2023-01-01T09:14:40;15.45;;;4.72;;
64387;SDS011;50709;52.648;4.764;2023-01-01T09:17:05;8.18;;;2.75;;
64387;SDS011;50709;52.648;4.764;2023-01-01T09:19:31;13.43;;;3.05;;
64387;SDS011;50709;52.648;4.764;2023-01-01T09:21:56;14.20;;;3.80;;
64387;SDS011;50709;52.648;4.764;2023-01-01T09:24:22;11.40;;;2.85;;
64387;SDS011;50709;52.648;4.764;2023-01-01T09:26:48;18.33;;;3.40;;
64387;SDS011;50709;52.648;4.764;2023-01-01T09:29:14;15.43;;;3.40;;
64387;SDS011;50709;52.648;4.764;2023-01-01T09:31:44;9.43;;;2.65;;
64387;SDS011;50709;52.648;4.764;2023-01-01T09:34:10;15.82;;;3.67;;
64387;SDS011;50709;52.648;4.764;2023-01-01T09:36:35;14.88;;;3.40;;
64387;SDS011;50709;52.648;4.764;2023-01-01T09:39:01;15.27;;;3.03;;
64387;SDS011;50709;52.648;4.764;2023-01-01T09:47:02;18.77;;;3.30;;
64387;SDS011;50709;52.648;4.764;2023-01-01T09:49:39;13.75;;;3.20;;
64387;SDS011;50709;52.648;4.764;2023-01-01T09:52:09;17.77;;;3.28;;
64387;SDS011;50709;52.648;4.764;2023-01-01T09:54:39;14.77;;;3.05;;
64387;SDS011;50709;52.648;4.764;2023-01-01T09:57:12;9.63;;;2.60;;
64387;SDS011;50709;52.648;4.764;2023-01-01T09:59:38;13.40;;;3.95;;
64387;SDS011;50709;52.648;4.764;2023-01-01T10:10:40;14.60;;;3.00;;
64387;SDS011;50709;52.648;4.764;2023-01-01T10:16:03;14.50;;;3.13;;
64387;SDS011;50709;52.648;4.764;2023-01-01T10:18:35;12.77;;;3.65;;
64387;SDS011;50709;52.648;4.764;2023-01-01T10:21:14;8.65;;;2.75;;
64387;SDS011;50709;52.648;4.764;2023-01-01T10:23:45;16.45;;;3.55;;
64387;SDS011;50709;52.648;4.764;2023-01-01T10:26:17;8.52;;;2.38;;
64387;SDS011;50709;52.648;4.764;2023-01-01T10:31:20;16.73;;;3.10;;
64387;SDS011;50709;52.648;4.764;2023-01-01T10:33:53;11.35;;;2.72;;
64387;SDS011;50709;52.648;4.764;2023-01-01T10:36:19;13.63;;;3.00;;
64387;SDS011;50709;52.648;4.764;2023-01-01T10:38:45;18.98;;;3.53;;
64387;SDS011;50709;52.648;4.764;2023-01-01T10:41:12;12.95;;;2.80;;
64387;SDS011;50709;52.648;4.764;2023-01-01T10:43:38;13.40;;;4.45;;
64387;SDS011;50709;52.648;4.764;2023-01-01T10:46:04;16.05;;;4.00;;
64387;SDS011;50709;52.648;4.764;2023-01-01T10:48:31;11.38;;;3.28;;
64387;SDS011;50709;52.648;4.764;2023-01-01T10:51:01;15.60;;;2.90;;
64387;SDS011;50709;52.648;4.764;2023-01-01T10:53:41;10.82;;;2.60;;
64387;SDS011;50709;52.648;4.764;2023-01-01T10:56:14;12.90;;;3.20;;
64387;SDS011;50709;52.648;4.764;2023-01-01T11:01:21;15.05;;;3.60;;
64387;SDS011;50709;52.648;4.764;2023-01-01T11:06:33;8.27;;;2.20;;
64387;SDS011;50709;52.648;4.764;2023-01-01T11:09:04;10.02;;;2.83;;
64387;SDS011;50709;52.648;4.764;2023-01-01T11:11:34;13.93;;;3.08;;
64387;SDS011;50709;52.648;4.764;2023-01-01T11:14:12;11.02;;;2.95;;
64387;SDS011;50709;52.648;4.764;2023-01-01T11:16:44;10.50;;;2.58;;
64387;SDS011;50709;52.648;4.764;2023-01-01T11:19:21;11.23;;;3.30;;
64387;SDS011;50709;52.648;4.764;2023-01-01T11:21:47;7.57;;;2.50;;
64387;SDS011;50709;52.648;4.764;2023-01-01T11:24:20;9.73;;;2.67;;
64387;SDS011;50709;52.648;4.764;2023-01-01T11:26:48;13.10;;;3.03;;
64387;SDS011;50709;52.648;4.764;2023-01-01T11:31:39;12.98;;;2.70;;
64387;SDS011;50709;52.648;4.764;2023-01-01T11:39:45;12.35;;;3.00;;
64387;SDS011;50709;52.648;4.764;2023-01-01T11:42:16;10.88;;;2.92;;
64387;SDS011;50709;52.648;4.764;2023-01-01T11:44:45;9.45;;;3.00;;
64387;SDS011;50709;52.648;4.764;2023-01-01T11:47:41;8.02;;;2.30;;
64387;SDS011;50709;52.648;4.764;2023-01-01T11:55:47;9.50;;;2.33;;
64387;SDS011;50709;52.648;4.764;2023-01-01T12:03:54;12.70;;;2.65;;
64387;SDS011;50709;52.648;4.764;2023-01-01T12:06:27;10.73;;;2.83;;
64387;SDS011;50709;52.648;4.764;2023-01-01T12:09:09;8.82;;;3.08;;
64387;SDS011;50709;52.648;4.764;2023-01-01T12:14:10;11.20;;;2.95;;
64387;SDS011;50709;52.648;4.764;2023-01-01T12:22:07;9.95;;;3.25;;
64387;SDS011;50709;52.648;4.764;2023-01-01T12:24:41;12.82;;;3.15;;
64387;SDS011;50709;52.648;4.764;2023-01-01T12:29:54;11.00;;;2.88;;
64387;SDS011;50709;52.648;4.764;2023-01-01T12:41:03;7.95;;;2.55;;
64387;SDS011;50709;52.648;4.764;2023-01-01T12:43:41;9.68;;;2.45;;
64387;SDS011;50709;52.648;4.764;2023-01-01T13:02:27;13.48;;;3.35;;
64387;SDS011;50709;52.648;4.764;2023-01-01T13:05:02;12.07;;;2.50;;
64387;SDS011;50709;52.648;4.764;2023-01-01T13:07:37;8.45;;;2.65;;
64387;SDS011;50709;52.648;4.764;2023-01-01T13:10:07;14.00;;;2.92;;
64387;SDS011;50709;52.648;4.764;2023-01-01T13:12:43;12.52;;;3.75;;
64387;SDS011;50709;52.648;4.764;2023-01-01T13:18:06;10.70;;;2.65;;
64387;SDS011;50709;52.648;4.764;2023-01-01T13:23:43;10.30;;;3.03;;
64387;SDS011;50709;52.648;4.764;2023-01-01T13:31:14;8.60;;;2.53;;
64387;SDS011;50709;52.648;4.764;2023-01-01T13:33:39;11.63;;;2.90;;
64387;SDS011;50709;52.648;4.764;2023-01-01T13:38:52;13.38;;;2.60;;
64387;SDS011;50709;52.648;4.764;2023-01-01T13:46:31;9.05;;;2.53;;
64387;SDS011;50709;52.648;4.764;2023-01-01T14:00:04;9.25;;;2.60;;
64387;SDS011;50709;52.648;4.764;2023-01-01T14:02:53;11.60;;;2.95;;
64387;SDS011;50709;52.648;4.764;2023-01-01T14:05:32;19.85;;;3.28;;
64387;SDS011;50709;52.648;4.764;2023-01-01T14:08:02;9.82;;;2.63;;
64387;SDS011;50709;52.648;4.764;2023-01-01T14:10:29;14.45;;;2.83;;
64387;SDS011;50709;52.648;4.764;2023-01-01T14:13:00;18.10;;;3.10;;
64387;SDS011;50709;52.648;4.764;2023-01-01T14:15:30;13.95;;;3.03;;
64387;SDS011;50709;52.648;4.764;2023-01-01T14:17:58;9.55;;;2.58;;
64387;SDS011;50709;52.648;4.764;2023-01-01T14:20:35;7.55;;;2.40;;
64387;SDS011;50709;52.648;4.764;2023-01-01T14:23:05;15.68;;;3.05;;
64387;SDS011;50709;52.648;4.764;2023-01-01T14:25:52;11.73;;;3.08;;
64387;SDS011;50709;52.648;4.764;2023-01-01T14:28:18;12.80;;;2.92;;
64387;SDS011;50709;52.648;4.764;2023-01-01T14:30:53;9.73;;;2.60;;
64387;SDS011;50709;52.648;4.764;2023-01-01T14:33:23;11.13;;;3.05;;
64387;SDS011;50709;52.648;4.764;2023-01-01T14:35:55;9.60;;;2.22;;
64387;SDS011;50709;52.648;4.764;2023-01-01T14:41:37;11.15;;;2.92;;
64387;SDS011;50709;52.648;4.764;2023-01-01T14:44:05;9.50;;;3.03;;
64387;SDS011;50709;52.648;4.764;2023-01-01T14:46:31;9.15;;;2.47;;
64387;SDS011;50709;52.648;4.764;2023-01-01T14:48:59;7.85;;;2.53;;
64387;SDS011;50709;52.648;4.764;2023-01-01T14:51:27;11.88;;;2.88;;
64387;SDS011;50709;52.648;4.764;2023-01-01T14:53:56;9.60;;;2.72;;
64387;SDS011;50709;52.648;4.764;2023-01-01T14:56:30;14.57;;;3.13;;
64387;SDS011;50709;52.648;4.764;2023-01-01T14:59:20;10.23;;;2.50;;
64387;SDS011;50709;52.648;4.764;2023-01-01T15:01:58;13.15;;;2.80;;
64387;SDS011;50709;52.648;4.764;2023-01-01T15:04:25;10.15;;;2.80;;
64387;SDS011;50709;52.648;4.764;2023-01-01T15:06:55;8.35;;;2.28;;
64387;SDS011;50709;52.648;4.764;2023-01-01T15:09:22;11.70;;;2.75;;
64387;SDS011;50709;52.648;4.764;2023-01-01T15:11:54;12.40;;;2.88;;
64387;SDS011;50709;52.648;4.764;2023-01-01T15:14:37;8.30;;;2.63;;
64387;SDS011;50709;52.648;4.764;2023-01-01T15:17:05;7.18;;;2.65;;
64387;SDS011;50709;52.648;4.764;2023-01-01T15:19:32;8.10;;;2.65;;
64387;SDS011;50709;52.648;4.764;2023-01-01T15:22:24;14.43;;;3.20;;
64387;SDS011;50709;52.648;4.764;2023-01-01T15:24:58;13.45;;;2.80;;
64387;SDS011;50709;52.648;4.764;2023-01-01T15:27:28;10.50;;;3.08;;
64387;SDS011;50709;52.648;4.764;2023-01-01T15:29:56;8.45;;;2.47;;
64387;SDS011;50709;52.648;4.764;2023-01-01T15:32:32;11.95;;;3.10;;
64387;SDS011;50709;52.648;4.764;2023-01-01T15:35:03;8.88;;;2.90;;
64387;SDS011;50709;52.648;4.764;2023-01-01T15:37:35;9.18;;;2.80;;
64387;SDS011;50709;52.648;4.764;2023-01-01T15:42:42;5.60;;;2.67;;
64387;SDS011;50709;52.648;4.764;2023-01-01T15:45:35;8.55;;;3.08;;
64387;SDS011;50709;52.648;4.764;2023-01-01T15:50:33;8.55;;;2.70;;
64387;SDS011;50709;52.648;4.764;2023-01-01T15:53:23;13.40;;;4.43;;
64387;SDS011;50709;52.648;4.764;2023-01-01T15:56:04;7.90;;;3.30;;
64387;SDS011;50709;52.648;4.764;2023-01-01T15:58:35;11.15;;;2.95;;
64387;SDS011;50709;52.648;4.764;2023-01-01T16:01:06;8.23;;;3.75;;
64387;SDS011;50709;52.648;4.764;2023-01-01T16:03:35;13.93;;;3.92;;
64387;SDS011;50709;52.648;4.764;2023-01-01T16:06:02;8.88;;;2.95;;
64387;SDS011;50709;52.648;4.764;2023-01-01T16:08:28;11.00;;;3.17;;
64387;SDS011;50709;52.648;4.764;2023-01-01T16:10:54;10.88;;;3.63;;
64387;SDS011;50709;52.648;4.764;2023-01-01T16:13:19;10.38;;;3.10;;
64387;SDS011;50709;52.648;4.764;2023-01-01T16:16:03;11.25;;;3.05;;
64387;SDS011;50709;52.648;4.764;2023-01-01T16:18:30;11.60;;;3.20;;
64387;SDS011;50709;52.648;4.764;2023-01-01T16:21:01;9.38;;;3.10;;
64387;SDS011;50709;52.648;4.764;2023-01-01T16:23:28;8.68;;;3.50;;
64387;SDS011;50709;52.648;4.764;2023-01-01T16:25:53;12.18;;;3.75;;
64387;SDS011;50709;52.648;4.764;2023-01-01T16:28:19;10.32;;;3.28;;
64387;SDS011;50709;52.648;4.764;2023-01-01T16:31:04;10.60;;;3.50;;
64387;SDS011;50709;52.648;4.764;2023-01-01T16:33:30;13.98;;;3.80;;
64387;SDS011;50709;52.648;4.764;2023-01-01T16:35:55;10.55;;;3.22;;
64387;SDS011;50709;52.648;4.764;2023-01-01T16:38:21;7.82;;;3.30;;
64387;SDS011;50709;52.648;4.764;2023-01-01T16:40:46;7.32;;;3.13;;
64387;SDS011;50709;52.648;4.764;2023-01-01T16:43:15;8.68;;;3.63;;
64387;SDS011;50709;52.648;4.764;2023-01-01T16:45:42;10.75;;;4.32;;
64387;SDS011;50709;52.648;4.764;2023-01-01T16:48:08;8.57;;;3.95;;
64387;SDS011;50709;52.648;4.764;2023-01-01T16:50:34;13.27;;;4.05;;
64387;SDS011;50709;52.648;4.764;2023-01-01T16:52:59;7.45;;;3.65;;
64387;SDS011;50709;52.648;4.764;2023-01-01T16:55:25;12.65;;;3.90;;
64387;SDS011;50709;52.648;4.764;2023-01-01T16:57:50;10.75;;;3.50;;
64387;SDS011;50709;52.648;4.764;2023-01-01T17:00:16;8.85;;;3.30;;
64387;SDS011;50709;52.648;4.764;2023-01-01T17:02:47;10.50;;;3.78;;
64387;SDS011;50709;52.648;4.764;2023-01-01T17:05:13;13.80;;;3.88;;
64387;SDS011;50709;52.648;4.764;2023-01-01T17:07:38;9.25;;;3.47;;
64387;SDS011;50709;52.648;4.764;2023-01-01T17:10:04;10.23;;;3.42;;
64387;SDS011;50709;52.648;4.764;2023-01-01T17:12:30;8.60;;;3.60;;
64387;SDS011;50709;52.648;4.764;2023-01-01T17:14:55;14.00;;;3.58;;
64387;SDS011;50709;52.648;4.764;2023-01-01T17:17:21;7.70;;;3.60;;
64387;SDS011;50709;52.648;4.764;2023-01-01T17:19:46;8.98;;;3.80;;
64387;SDS011;50709;52.648;4.764;2023-01-01T17:22:14;7.97;;;3.50;;